createdAt,value
2022-08-23T07:03:14.702Z,96601.69
2022-08-23T07:04:22.522Z,96610.53
2022-08-23T07:05:23.962Z,96616.16
2022-08-23T07:06:28.125Z,96617.13
2022-08-23T07:07:37.700Z,96610.84
2022-08-23T07:08:45.309Z,96616.44
2022-08-23T07:09:46.712Z,96614.91
2022-08-23T07:31:48.147Z,96627.53
2022-08-23T07:32:49.918Z,96634.88
2022-08-23T07:33:51.785Z,96639.31
2022-08-23T07:34:53.216Z,96628.16
2022-08-23T07:35:54.594Z,96628.75
2022-08-23T07:36:56.487Z,96630.94
2022-08-23T07:37:57.973Z,96629.03
2022-08-23T07:39:00.441Z,96635.00
2022-08-23T07:56:04.771Z,96647.97
2022-08-23T07:57:06.201Z,96650.97
2022-08-23T07:58:07.631Z,96646.63
2022-08-23T07:59:10.382Z,96654.16
2022-08-23T08:00:11.996Z,96649.13
2022-08-23T08:01:31.701Z,96654.81
2022-08-23T08:02:33.630Z,96649.28
2022-08-23T08:03:35.332Z,96652.13
2022-08-23T08:04:37.432Z,96652.97
2022-08-23T08:05:39.420Z,96650.97
2022-08-23T08:06:59.787Z,96654.16
2022-08-23T08:08:07.933Z,96649.47
2022-08-23T08:09:10.644Z,96652.44
2022-08-23T08:27:27.534Z,96659.25
2022-08-23T08:28:28.998Z,96653.06
2022-08-23T08:29:30.452Z,96654.22
2022-08-23T08:30:31.856Z,96659.09
2022-08-23T08:31:34.372Z,96661.09
2022-08-23T08:32:36.429Z,96657.28
2022-08-23T08:33:37.960Z,96636.91
2022-08-23T08:34:40.434Z,96659.19
2022-08-23T08:35:41.831Z,96658.81
2022-08-23T08:36:50.621Z,96662.19
2022-08-23T08:37:52.463Z,96663.81
2022-08-23T08:38:58.323Z,96664.38
2022-08-23T08:40:02.378Z,96664.69
2022-08-23T08:41:20.097Z,96668.03
2022-08-23T08:42:42.622Z,96666.84
2022-08-23T09:01:19.836Z,96673.72
2022-08-23T09:02:32.517Z,96673.88
2022-08-23T09:03:35.634Z,96670.22
2022-08-23T09:05:52.759Z,96678.06
2022-08-23T09:07:10.381Z,96662.34
2022-08-23T09:08:50.181Z,96669.88
2022-08-23T09:10:48.256Z,96671.00
2022-08-23T09:11:55.259Z,96679.09
2022-08-23T09:13:12.321Z,96675.53
2022-08-23T09:14:25.350Z,96677.06
2022-08-23T09:16:05.145Z,96668.03
2022-08-23T09:17:27.750Z,96678.06
2022-08-23T09:18:34.177Z,96673.88
2022-08-23T09:35:43.820Z,96671.28
2022-08-23T09:36:45.885Z,96677.53
2022-08-23T09:38:01.470Z,96676.63
2022-08-23T09:39:31.442Z,96676.38
2022-08-23T09:40:38.860Z,96671.97
2022-08-23T09:41:43.647Z,96671.53
2022-08-23T09:42:47.269Z,96682.13
2022-08-23T09:43:48.963Z,96677.63
2022-08-23T09:44:50.753Z,96668.41
2022-08-23T09:45:52.092Z,96669.25
2022-08-23T09:47:14.949Z,96666.75
2022-08-23T09:48:35.080Z,96670.13
2022-08-23T09:49:36.523Z,96671.69
2022-08-23T09:50:43.150Z,96672.03
2022-08-23T09:51:45.176Z,96658.75
2022-08-23T09:52:50.185Z,96656.34
2022-08-23T09:54:04.316Z,96664.19
2022-08-23T09:55:25.043Z,96668.94
2022-08-23T09:56:27.605Z,96673.47
2022-08-23T09:57:31.892Z,96662.06
2022-08-23T09:58:39.081Z,96669.00
2022-08-23T09:59:46.233Z,96674.72
2022-08-23T10:01:07.371Z,96677.72
2022-08-23T10:02:17.256Z,96671.19
2022-08-23T10:03:27.520Z,96670.03
2022-08-23T10:21:36.197Z,96664.41
2022-08-23T10:23:25.756Z,96673.66
2022-08-23T10:24:44.860Z,96665.03
2022-08-23T10:25:50.939Z,96665.44
2022-08-23T10:27:30.304Z,96666.84
2022-08-23T10:29:15.021Z,96667.47
2022-08-23T10:30:23.540Z,96661.31
2022-08-23T10:31:47.377Z,96667.16
2022-08-23T10:32:57.669Z,96667.03
2022-08-23T10:34:24.547Z,96666.31
2022-08-23T10:35:48.845Z,96672.91
2022-08-23T10:36:55.968Z,96661.38
2022-08-23T10:38:12.836Z,96662.41
2022-08-23T10:39:27.064Z,96655.63
2022-08-23T10:40:52.128Z,96659.28
2022-08-23T10:42:07.887Z,96659.38
2022-08-23T10:43:20.861Z,96656.38
2022-08-23T10:44:25.378Z,96657.81
2022-08-23T10:45:36.955Z,96656.97
2022-08-23T10:46:46.970Z,96652.91
2022-08-23T10:48:15.601Z,96658.22
2022-08-23T10:49:17.253Z,96652.34
2022-08-23T10:50:20.628Z,96647.69
2022-08-23T10:51:31.557Z,96645.75
2022-08-23T10:52:40.461Z,96646.63
2022-08-23T10:53:56.986Z,96643.88
2022-08-23T10:55:16.626Z,96649.38
2022-08-23T10:56:20.871Z,96648.63
2022-08-23T10:57:24.654Z,96643.56
2022-08-23T10:58:29.244Z,96648.31
2022-08-23T10:59:34.711Z,96631.34
2022-08-23T11:00:37.733Z,96644.31
2022-08-23T11:01:59.840Z,96641.31
2022-08-23T11:03:19.307Z,96639.41
2022-08-23T11:04:26.000Z,96629.19
2022-08-23T11:05:33.575Z,96638.94
2022-08-23T11:06:34.985Z,96633.22
2022-08-23T11:07:41.295Z,96634.84
2022-08-23T11:08:47.926Z,96631.13
2022-08-23T11:10:09.947Z,96627.09
2022-08-23T11:11:43.141Z,96640.19
2022-08-23T11:12:58.110Z,96632.88
2022-08-23T11:13:59.552Z,96634.31
2022-08-23T11:15:06.894Z,96632.50
2022-08-23T11:33:17.134Z,96616.19
2022-08-23T11:34:29.315Z,96613.47
2022-08-23T11:35:43.116Z,96612.97
2022-08-23T11:37:20.123Z,96618.00
2022-08-23T11:38:43.439Z,96620.44
2022-08-23T11:40:00.221Z,96621.97
2022-08-23T11:41:13.467Z,96614.59
2022-08-23T11:42:19.417Z,96616.25
2022-08-23T11:43:35.097Z,96622.50
2022-08-23T11:44:40.198Z,96613.06
2022-08-23T11:45:47.187Z,96623.16
2022-08-23T11:46:55.397Z,96628.31
2022-08-23T11:48:37.106Z,96624.44
2022-08-23T11:49:59.697Z,96620.69
2022-08-23T11:51:24.665Z,96615.81
2022-08-23T11:53:17.277Z,96616.63
2022-08-23T11:54:28.724Z,96626.69
2022-08-23T11:55:58.177Z,96626.50
2022-08-23T11:57:18.115Z,96618.22
2022-08-23T11:58:26.900Z,96625.88
2022-08-23T11:59:32.045Z,96619.34
2022-08-23T12:01:07.425Z,96622.63
2022-08-23T12:02:47.932Z,96619.16
2022-08-23T12:04:14.481Z,96623.44
2022-08-23T12:05:20.246Z,96616.28
2022-08-23T12:06:26.004Z,96613.81
2022-08-23T12:08:03.418Z,96613.06
2022-08-23T12:09:12.285Z,96604.19
2022-08-23T12:10:22.014Z,96605.06
2022-08-23T12:11:25.523Z,96608.47
2022-08-23T12:12:32.529Z,96605.78
2022-08-23T12:13:54.788Z,96603.06
2022-08-23T12:15:02.289Z,96604.03
2022-08-23T12:16:19.779Z,96612.44
2022-08-23T12:17:25.982Z,96612.16
2022-08-23T12:18:27.619Z,96605.31
2022-08-23T12:19:40.299Z,96603.44
2022-08-23T12:20:43.401Z,96599.94
2022-08-23T12:21:52.167Z,96609.25
2022-08-23T12:22:59.541Z,96604.78
2022-08-23T12:24:14.355Z,96595.25
2022-08-23T12:25:19.852Z,96595.78
2022-08-23T12:26:24.329Z,96610.66
2022-08-23T12:27:52.403Z,96607.94
2022-08-23T12:29:09.152Z,96610.50
2022-08-23T12:30:20.269Z,96609.97
2022-08-23T12:31:49.765Z,96605.81
2022-08-23T12:33:13.457Z,96605.38
2022-08-23T12:34:26.961Z,96603.19
2022-08-23T12:35:40.306Z,96583.16
2022-08-23T12:36:54.971Z,96597.47
2022-08-23T12:38:20.368Z,96606.56
2022-08-23T12:39:36.386Z,96609.47
2022-08-23T12:40:54.629Z,96603.91
2022-08-23T12:42:15.553Z,96591.63
2022-08-23T12:43:26.554Z,96601.03
2022-08-23T12:44:29.601Z,96600.38
2022-08-23T12:45:39.397Z,96603.25
2022-08-23T12:46:44.526Z,96610.72
2022-08-23T12:47:57.009Z,96603.88
2022-08-23T12:49:00.080Z,96607.09
2022-08-23T12:50:15.363Z,96609.78
2022-08-23T12:51:17.227Z,96593.78
2022-08-23T12:52:28.188Z,96600.59
2022-08-23T12:53:33.383Z,96604.03
2022-08-23T12:54:42.774Z,96601.19
2022-08-23T12:55:48.638Z,96596.66
2022-08-23T12:56:53.744Z,96602.56
2022-08-23T12:57:56.482Z,96595.59
2022-08-23T12:59:04.920Z,96600.06
2022-08-23T13:00:27.586Z,96595.59
2022-08-23T13:01:37.375Z,96589.75
2022-08-23T13:02:39.955Z,96585.94
2022-08-23T13:03:45.568Z,96591.31
2022-08-23T13:04:47.007Z,96565.56
2022-08-23T13:05:55.229Z,96590.59
2022-08-23T13:07:01.277Z,96593.03
2022-08-23T13:08:07.813Z,96592.28
2022-08-23T13:09:19.065Z,96580.47
2022-08-23T13:24:39.157Z,96583.56
2022-08-23T13:25:42.702Z,96591.34
2022-08-23T13:26:46.976Z,96595.28
2022-08-23T13:27:48.361Z,96592.56
2022-08-23T13:29:09.628Z,96587.31
2022-08-23T13:30:11.208Z,96583.53
2022-08-23T13:31:12.671Z,96587.50
2022-08-23T13:32:35.327Z,96581.91
2022-08-23T13:33:37.341Z,96582.72
2022-08-23T13:34:48.571Z,96584.84
2022-08-23T13:35:53.253Z,96586.66
2022-08-23T13:36:58.633Z,96582.28
2022-08-23T13:38:08.914Z,96589.19
2022-08-23T13:39:10.313Z,96577.28
2022-08-23T13:40:22.451Z,96585.75
2022-08-23T13:41:39.165Z,96588.00
2022-08-23T13:42:52.585Z,96584.56
2022-08-23T13:43:55.177Z,96573.28
2022-08-23T13:44:56.638Z,96582.03
2022-08-23T13:46:09.407Z,96577.31
2022-08-23T13:47:22.789Z,96580.44
2022-08-23T13:48:30.292Z,96581.28
2022-08-23T13:49:36.861Z,96579.44
2022-08-23T13:50:39.065Z,96586.13
2022-08-23T13:52:33.276Z,96585.22
2022-08-23T13:53:25.524Z,96587.78
2022-08-23T13:54:29.519Z,96575.91
2022-08-23T13:55:31.358Z,96579.34
2022-08-23T13:56:39.872Z,96585.97
2022-08-23T13:57:42.656Z,96580.19
2022-08-23T13:58:57.545Z,96578.63
2022-08-23T13:59:59.087Z,96573.28
2022-08-23T14:01:03.340Z,96577.63
2022-08-23T14:02:11.345Z,96577.50
2022-08-23T14:03:12.728Z,96577.66
2022-08-23T14:04:14.133Z,96576.94
2022-08-23T14:05:22.720Z,96585.75
2022-08-23T14:06:25.541Z,96587.25
2022-08-23T14:07:27.969Z,96583.56
2022-08-23T14:08:29.412Z,96575.63
2022-08-23T14:09:30.851Z,96573.59
2022-08-23T14:10:33.217Z,96569.38
2022-08-23T14:11:35.354Z,96569.69
2022-08-23T14:12:36.952Z,96575.28
2022-08-23T14:13:38.603Z,96582.31
2022-08-23T14:14:40.692Z,96578.00
2022-08-23T14:16:32.919Z,96574.03
2022-08-23T14:17:06.730Z,96569.22
2022-08-23T14:18:12.844Z,96577.75
2022-08-23T14:19:18.087Z,96581.69
2022-08-23T14:20:51.525Z,96583.66
2022-08-23T14:21:53.839Z,96576.06
2022-08-23T14:22:55.471Z,96574.44
2022-08-23T14:23:56.946Z,96577.03
2022-08-23T14:24:58.595Z,96573.31
2022-08-23T14:26:00.041Z,96571.56
2022-08-23T14:27:01.720Z,96572.63
2022-08-23T14:28:03.397Z,96580.88
2022-08-23T14:29:05.415Z,96566.47
2022-08-23T14:30:09.333Z,96580.03
2022-08-23T14:31:11.308Z,96577.81
2022-08-23T14:32:12.716Z,96581.03
2022-08-23T14:33:14.149Z,96571.31
2022-08-23T14:34:15.553Z,96572.75
2022-08-23T14:35:17.234Z,96576.81
2022-08-23T14:36:18.833Z,96574.53
2022-08-23T14:38:02.867Z,96567.56
2022-08-23T14:38:43.699Z,96577.31
2022-08-23T14:39:46.256Z,96568.66
2022-08-23T14:40:53.837Z,96574.69
2022-08-23T14:41:55.256Z,96570.28
2022-08-23T14:42:56.878Z,96559.88
2022-08-23T14:43:58.622Z,96571.28
2022-08-23T14:45:00.167Z,96568.00
2022-08-23T14:46:02.627Z,96571.09
2022-08-23T14:47:05.779Z,96561.97
2022-08-23T14:48:07.318Z,96563.53
2022-08-23T14:49:08.900Z,96563.19
2022-08-23T14:50:13.286Z,96576.03
2022-08-23T14:51:23.232Z,96577.31
2022-08-23T14:52:24.625Z,96573.44
2022-08-23T14:53:29.941Z,96570.28
2022-08-23T14:54:32.886Z,96567.47
2022-08-23T14:55:34.588Z,96565.97
2022-08-23T14:56:36.335Z,96571.53
2022-08-23T14:57:37.986Z,96542.34
2022-08-23T14:58:40.273Z,96574.84
2022-08-23T14:59:41.664Z,96569.53
2022-08-23T15:00:43.736Z,96569.63
2022-08-23T15:01:47.276Z,96576.75
2022-08-23T15:02:50.239Z,96561.66
2022-08-23T15:03:51.873Z,96568.19
2022-08-23T15:04:54.769Z,96553.66
2022-08-23T15:05:56.705Z,96570.88
2022-08-23T15:07:17.119Z,96570.16
2022-08-23T15:08:20.289Z,96574.00
2022-08-23T15:09:21.879Z,96570.88
2022-08-23T15:13:22.852Z,96565.47
2022-08-23T15:14:28.914Z,96568.06
2022-08-23T15:15:30.814Z,96562.25
2022-08-23T15:16:33.456Z,96580.25
2022-08-23T15:17:39.145Z,96569.22
2022-08-23T15:18:47.275Z,96567.75
2022-08-23T15:19:48.706Z,96575.28
2022-08-23T15:20:52.371Z,96572.97
2022-08-23T15:21:54.069Z,96587.13
2022-08-23T15:22:56.210Z,96566.16
2022-08-23T15:23:57.876Z,96574.00
2022-08-23T15:24:59.346Z,96576.88
2022-08-23T15:26:01.026Z,96575.16
2022-08-23T15:27:03.699Z,96569.66
2022-08-23T15:28:12.621Z,96573.56
2022-08-23T15:29:14.583Z,96574.28
2022-08-23T15:30:22.129Z,96562.84
2022-08-23T15:31:24.051Z,96569.59
2022-08-23T15:32:25.534Z,96569.66
2022-08-23T15:33:30.810Z,96574.03
2022-08-23T15:34:33.318Z,96557.50
2022-08-23T15:35:43.747Z,96561.47
2022-08-23T15:36:45.756Z,96551.75
2022-08-23T15:37:47.325Z,96561.34
2022-08-23T15:38:49.729Z,96556.94
2022-08-23T15:39:52.030Z,96556.94
2022-08-23T15:40:54.845Z,96560.97
2022-08-23T15:41:56.245Z,96562.31
2022-08-23T15:42:58.934Z,96568.91
2022-08-23T15:44:01.674Z,96564.28
2022-08-23T15:45:04.425Z,96556.97
2022-08-23T15:46:10.342Z,96569.19
2022-08-23T15:47:22.187Z,96563.69
2022-08-23T15:48:32.364Z,96561.63
2022-08-23T15:49:36.496Z,96559.16
2022-08-23T15:50:38.211Z,96560.41
2022-08-23T15:51:41.620Z,96565.44
2022-08-23T15:52:43.061Z,96546.06
2022-08-23T15:53:45.125Z,96556.66
2022-08-23T15:54:47.486Z,96564.09
2022-08-23T15:55:50.340Z,96563.88
2022-08-23T15:56:53.234Z,96558.22
2022-08-23T15:57:55.765Z,96556.19
2022-08-23T15:58:57.274Z,96553.63
2022-08-23T15:59:59.077Z,96560.66
2022-08-23T16:01:00.532Z,96564.00
2022-08-23T16:02:02.073Z,96562.59
2022-08-23T16:03:19.044Z,96560.47
2022-08-23T16:04:22.215Z,96570.03
2022-08-23T16:05:23.921Z,96545.31
2022-08-23T16:06:25.870Z,96554.81
2022-08-23T16:07:27.350Z,96545.75
2022-08-23T16:08:36.352Z,96554.19
2022-08-23T16:09:37.785Z,96555.63
2022-08-23T16:10:40.385Z,96553.63
2022-08-23T16:11:41.855Z,96563.81
2022-08-23T16:12:43.266Z,96555.13
2022-08-23T16:13:46.620Z,96555.50
2022-08-23T16:14:48.020Z,96557.66
2022-08-23T16:15:49.534Z,96552.31
2022-08-23T16:16:51.042Z,96552.47
2022-08-23T16:17:52.667Z,96553.06
2022-08-23T16:18:55.224Z,96553.25
2022-08-23T16:19:56.677Z,96556.19
2022-08-23T16:20:58.122Z,96551.72
2022-08-23T16:21:59.994Z,96549.91
2022-08-23T16:23:01.560Z,96542.97
2022-08-23T16:24:03.885Z,96549.09
2022-08-23T16:25:05.630Z,96545.06
2022-08-23T16:26:15.117Z,96553.28
2022-08-23T16:27:17.324Z,96551.19
2022-08-23T16:28:18.720Z,96549.66
2022-08-23T16:29:20.720Z,96551.16
2022-08-23T16:30:22.423Z,96527.22
2022-08-23T16:31:38.944Z,96540.94
2022-08-23T16:32:41.588Z,96546.81
2022-08-23T16:33:43.828Z,96543.69
2022-08-23T16:34:45.385Z,96546.34
2022-08-23T16:35:47.253Z,96543.47
2022-08-23T16:36:53.737Z,96545.50
2022-08-23T16:37:56.502Z,96556.13
2022-08-23T16:38:57.935Z,96546.75
2022-08-23T16:39:59.837Z,96548.84
2022-08-23T16:41:01.848Z,96549.00
2022-08-23T16:42:05.701Z,96545.47
2022-08-23T16:43:07.250Z,96552.16
2022-08-23T16:44:08.692Z,96549.84
2022-08-23T16:45:11.199Z,96550.69
2022-08-23T16:46:12.825Z,96555.44
2022-08-23T16:47:15.703Z,96553.75
2022-08-23T16:48:17.389Z,96550.44
2022-08-23T16:49:18.996Z,96543.75
2022-08-23T16:50:20.468Z,96547.97
2022-08-23T16:51:21.936Z,96550.50
2022-08-23T16:52:25.948Z,96546.53
2022-08-23T16:53:37.241Z,96556.50
2022-08-23T16:54:39.397Z,96555.25
2022-08-23T16:55:40.883Z,96542.19
2022-08-23T16:56:43.228Z,96537.00
2022-08-23T16:57:44.709Z,96553.22
2022-08-23T16:58:46.126Z,96554.03
2022-08-23T16:59:47.780Z,96551.34
2022-08-23T17:00:50.465Z,96557.41
2022-08-23T17:01:58.401Z,96560.50
2022-08-23T17:03:00.288Z,96546.97
2022-08-23T17:04:01.960Z,96538.81
2022-08-23T17:05:06.929Z,96555.78
2022-08-23T17:06:09.699Z,96549.13
2022-08-23T17:07:11.100Z,96557.00
2022-08-23T17:08:12.581Z,96559.63
2022-08-23T17:09:14.057Z,96556.22
2022-08-23T17:10:17.741Z,96551.19
2022-08-23T17:11:19.802Z,96549.50
2022-08-23T17:12:21.761Z,96554.66
2022-08-23T17:13:23.251Z,96540.38
2022-08-23T17:14:26.350Z,96555.00
2022-08-23T17:15:31.460Z,96551.03
2022-08-23T17:16:33.240Z,96511.41
2022-08-23T17:17:35.685Z,96558.34
2022-08-23T17:18:38.704Z,96545.44
